KDPG/DPG METAR and TAF weather

Enter ICAO airport designator
Station Type Date Time Source
KDPG METAR 2021/09/24 19:50 UTC NOAA

KDPG 241950Z 29003KT 30SM SKC 24/02 A3021 RMK SLP188 T02350025 LAST


Station Type Date Time Source
KDPG Decoded METAR 2021/09/24 19:50 UTC NOAA

Dugway Proving Grounds, UT, United States (KDPG) 40-10N 112-56W 1325M
Sep 24, 2021 - 03:50 PM EDT / 2021.09.24 1950 UTC
Wind: from the WNW (290 degrees) at 3 MPH (3 KT):0
Visibility: 30 mile(s):0
Sky conditions: clear
Temperature: 74.3 F (23.5 C)
Dew Point: 36.5 F (2.5 C)
Relative Humidity: 25%
Pressure (altimeter): 30.21 in. Hg (1023 hPa)
ob: KDPG 241950Z 29003KT 30SM SKC 24/02 A3021 RMK SLP188 T02350025 LAST
cycle: 20

Station Type Date Time Source
KDPG TAF UTC NOAA

Error!

Example: see airport list